sensor_id;sensor_type;location;lat;lon;timestamp;P1;durP1;ratioP1;P2;durP2;ratioP2
4001;SDS011;2015;48.670;9.060;2023-03-14T00:02:14;1.57;;;1.47;;
4001;SDS011;2015;48.670;9.060;2023-03-14T00:04:46;1.70;;;1.60;;
4001;SDS011;2015;48.670;9.060;2023-03-14T00:07:18;1.73;;;1.63;;
4001;SDS011;2015;48.670;9.060;2023-03-14T00:09:50;1.70;;;1.60;;
4001;SDS011;2015;48.670;9.060;2023-03-14T00:12:22;1.43;;;1.33;;
4001;SDS011;2015;48.670;9.060;2023-03-14T00:14:53;1.83;;;1.20;;
4001;SDS011;2015;48.670;9.060;2023-03-14T00:17:26;1.67;;;1.57;;
4001;SDS011;2015;48.670;9.060;2023-03-14T00:19:58;2.47;;;2.27;;
4001;SDS011;2015;48.670;9.060;2023-03-14T00:22:35;2.00;;;1.80;;
4001;SDS011;2015;48.670;9.060;2023-03-14T00:25:08;2.77;;;2.17;;
4001;SDS011;2015;48.670;9.060;2023-03-14T00:27:40;1.63;;;1.53;;
4001;SDS011;2015;48.670;9.060;2023-03-14T00:30:12;1.40;;;1.30;;
4001;SDS011;2015;48.670;9.060;2023-03-14T00:32:44;1.60;;;1.50;;
4001;SDS011;2015;48.670;9.060;2023-03-14T00:35:16;1.77;;;1.50;;
4001;SDS011;2015;48.670;9.060;2023-03-14T00:37:48;2.50;;;1.20;;
4001;SDS011;2015;48.670;9.060;2023-03-14T00:40:19;1.20;;;1.10;;
4001;SDS011;2015;48.670;9.060;2023-03-14T00:42:51;1.40;;;1.00;;
4001;SDS011;2015;48.670;9.060;2023-03-14T00:45:23;1.20;;;0.90;;
4001;SDS011;2015;48.670;9.060;2023-03-14T00:47:55;1.20;;;1.10;;
4001;SDS011;2015;48.670;9.060;2023-03-14T00:50:27;1.20;;;1.10;;
4001;SDS011;2015;48.670;9.060;2023-03-14T00:52:59;1.20;;;1.10;;
4001;SDS011;2015;48.670;9.060;2023-03-14T00:55:31;1.20;;;1.10;;
4001;SDS011;2015;48.670;9.060;2023-03-14T00:58:02;1.20;;;1.00;;
4001;SDS011;2015;48.670;9.060;2023-03-14T01:00:35;1.00;;;0.90;;
4001;SDS011;2015;48.670;9.060;2023-03-14T01:03:07;1.30;;;1.20;;
4001;SDS011;2015;48.670;9.060;2023-03-14T01:05:40;1.30;;;1.20;;
4001;SDS011;2015;48.670;9.060;2023-03-14T01:08:12;1.20;;;1.07;;
4001;SDS011;2015;48.670;9.060;2023-03-14T01:10:44;1.10;;;1.00;;
4001;SDS011;2015;48.670;9.060;2023-03-14T01:13:16;1.30;;;1.20;;
4001;SDS011;2015;48.670;9.060;2023-03-14T01:15:47;1.93;;;1.10;;
4001;SDS011;2015;48.670;9.060;2023-03-14T01:18:19;1.03;;;0.93;;
4001;SDS011;2015;48.670;9.060;2023-03-14T01:20:51;1.20;;;1.10;;
4001;SDS011;2015;48.670;9.060;2023-03-14T01:23:23;1.30;;;1.20;;
4001;SDS011;2015;48.670;9.060;2023-03-14T01:25:54;1.47;;;1.00;;
4001;SDS011;2015;48.670;9.060;2023-03-14T01:28:26;1.20;;;1.07;;
4001;SDS011;2015;48.670;9.060;2023-03-14T01:31:02;1.10;;;1.00;;
4001;SDS011;2015;48.670;9.060;2023-03-14T01:33:38;1.20;;;1.10;;
4001;SDS011;2015;48.670;9.060;2023-03-14T01:36:10;1.07;;;0.97;;
4001;SDS011;2015;48.670;9.060;2023-03-14T01:38:42;4.50;;;1.20;;
4001;SDS011;2015;48.670;9.060;2023-03-14T01:41:19;1.10;;;1.00;;
4001;SDS011;2015;48.670;9.060;2023-03-14T01:43:53;1.20;;;1.10;;
4001;SDS011;2015;48.670;9.060;2023-03-14T01:49:21;1.40;;;1.10;;
4001;SDS011;2015;48.670;9.060;2023-03-14T01:52:06;1.00;;;0.93;;
4001;SDS011;2015;48.670;9.060;2023-03-14T01:54:46;1.20;;;1.10;;
4001;SDS011;2015;48.670;9.060;2023-03-14T01:59:58;6.93;;;1.20;;
4001;SDS011;2015;48.670;9.060;2023-03-14T02:02:46;1.70;;;1.27;;
4001;SDS011;2015;48.670;9.060;2023-03-14T02:05:24;1.93;;;0.97;;
4001;SDS011;2015;48.670;9.060;2023-03-14T02:08:00;1.00;;;0.90;;
4001;SDS011;2015;48.670;9.060;2023-03-14T02:10:38;2.17;;;1.10;;
4001;SDS011;2015;48.670;9.060;2023-03-14T02:13:13;1.50;;;1.10;;
4001;SDS011;2015;48.670;9.060;2023-03-14T02:15:47;1.00;;;0.90;;
4001;SDS011;2015;48.670;9.060;2023-03-14T02:18:19;1.30;;;1.20;;
4001;SDS011;2015;48.670;9.060;2023-03-14T02:21:00;2.80;;;1.03;;
4001;SDS011;2015;48.670;9.060;2023-03-14T02:23:48;1.00;;;0.80;;
4001;SDS011;2015;48.670;9.060;2023-03-14T02:29:51;1.20;;;1.10;;
4001;SDS011;2015;48.670;9.060;2023-03-14T02:32:23;2.00;;;0.90;;
4001;SDS011;2015;48.670;9.060;2023-03-14T02:34:57;1.07;;;0.97;;
4001;SDS011;2015;48.670;9.060;2023-03-14T02:40:51;1.10;;;1.00;;
4001;SDS011;2015;48.670;9.060;2023-03-14T02:43:24;1.10;;;1.00;;
4001;SDS011;2015;48.670;9.060;2023-03-14T02:45:56;2.40;;;1.10;;
4001;SDS011;2015;48.670;9.060;2023-03-14T02:48:33;1.20;;;1.00;;
4001;SDS011;2015;48.670;9.060;2023-03-14T02:51:07;1.70;;;1.60;;
4001;SDS011;2015;48.670;9.060;2023-03-14T02:53:39;1.30;;;1.20;;
4001;SDS011;2015;48.670;9.060;2023-03-14T02:56:12;2.13;;;1.33;;
4001;SDS011;2015;48.670;9.060;2023-03-14T02:58:44;1.10;;;1.00;;
4001;SDS011;2015;48.670;9.060;2023-03-14T03:01:15;1.30;;;1.20;;
4001;SDS011;2015;48.670;9.060;2023-03-14T03:03:47;1.30;;;1.20;;
4001;SDS011;2015;48.670;9.060;2023-03-14T03:06:19;2.80;;;1.33;;
4001;SDS011;2015;48.670;9.060;2023-03-14T03:08:51;1.47;;;1.37;;
4001;SDS011;2015;48.670;9.060;2023-03-14T03:11:23;7.10;;;1.50;;
4001;SDS011;2015;48.670;9.060;2023-03-14T03:13:55;2.03;;;1.00;;
4001;SDS011;2015;48.670;9.060;2023-03-14T03:16:27;1.50;;;1.40;;
4001;SDS011;2015;48.670;9.060;2023-03-14T03:18:58;2.07;;;1.40;;
4001;SDS011;2015;48.670;9.060;2023-03-14T03:21:30;2.07;;;1.70;;
4001;SDS011;2015;48.670;9.060;2023-03-14T03:24:02;1.20;;;1.10;;
4001;SDS011;2015;48.670;9.060;2023-03-14T03:26:34;1.10;;;1.00;;
4001;SDS011;2015;48.670;9.060;2023-03-14T03:29:06;2.03;;;1.10;;
4001;SDS011;2015;48.670;9.060;2023-03-14T03:31:38;1.67;;;1.57;;
4001;SDS011;2015;48.670;9.060;2023-03-14T03:34:11;2.33;;;1.53;;
4001;SDS011;2015;48.670;9.060;2023-03-14T03:36:43;5.27;;;1.20;;
4001;SDS011;2015;48.670;9.060;2023-03-14T03:39:15;2.07;;;1.20;;
4001;SDS011;2015;48.670;9.060;2023-03-14T03:41:46;1.30;;;1.20;;
4001;SDS011;2015;48.670;9.060;2023-03-14T03:44:18;2.03;;;1.40;;
4001;SDS011;2015;48.670;9.060;2023-03-14T03:46:50;1.70;;;1.60;;
4001;SDS011;2015;48.670;9.060;2023-03-14T03:49:22;4.70;;;1.60;;
4001;SDS011;2015;48.670;9.060;2023-03-14T03:51:53;1.27;;;1.17;;
4001;SDS011;2015;48.670;9.060;2023-03-14T03:54:25;1.70;;;1.60;;
4001;SDS011;2015;48.670;9.060;2023-03-14T03:56:57;3.37;;;1.40;;
4001;SDS011;2015;48.670;9.060;2023-03-14T03:59:29;1.60;;;1.30;;
4001;SDS011;2015;48.670;9.060;2023-03-14T04:02:00;2.97;;;1.30;;
4001;SDS011;2015;48.670;9.060;2023-03-14T04:04:32;2.40;;;1.20;;
4001;SDS011;2015;48.670;9.060;2023-03-14T04:07:05;3.13;;;1.57;;
4001;SDS011;2015;48.670;9.060;2023-03-14T04:09:37;3.83;;;1.43;;
4001;SDS011;2015;48.670;9.060;2023-03-14T04:12:09;1.50;;;1.40;;
4001;SDS011;2015;48.670;9.060;2023-03-14T04:14:42;1.47;;;1.37;;
4001;SDS011;2015;48.670;9.060;2023-03-14T04:17:14;1.47;;;1.37;;
4001;SDS011;2015;48.670;9.060;2023-03-14T04:19:46;1.30;;;1.20;;
4001;SDS011;2015;48.670;9.060;2023-03-14T04:22:20;4.30;;;2.03;;
4001;SDS011;2015;48.670;9.060;2023-03-14T04:24:52;1.30;;;1.20;;
4001;SDS011;2015;48.670;9.060;2023-03-14T04:27:24;4.70;;;1.55;;
4001;SDS011;2015;48.670;9.060;2023-03-14T04:29:56;3.57;;;1.87;;
4001;SDS011;2015;48.670;9.060;2023-03-14T04:32:27;4.10;;;1.50;;
4001;SDS011;2015;48.670;9.060;2023-03-14T04:34:59;1.57;;;1.47;;
4001;SDS011;2015;48.670;9.060;2023-03-14T04:37:31;8.00;;;1.57;;
4001;SDS011;2015;48.670;9.060;2023-03-14T04:40:03;2.57;;;1.80;;
4001;SDS011;2015;48.670;9.060;2023-03-14T04:42:37;4.50;;;1.60;;
4001;SDS011;2015;48.670;9.060;2023-03-14T04:45:09;2.10;;;2.00;;
4001;SDS011;2015;48.670;9.060;2023-03-14T04:47:40;3.73;;;1.80;;
4001;SDS011;2015;48.670;9.060;2023-03-14T04:50:12;1.70;;;1.60;;
4001;SDS011;2015;48.670;9.060;2023-03-14T04:52:44;4.23;;;1.70;;
4001;SDS011;2015;48.670;9.060;2023-03-14T04:55:16;2.43;;;1.40;;
4001;SDS011;2015;48.670;9.060;2023-03-14T04:57:48;3.37;;;1.60;;
4001;SDS011;2015;48.670;9.060;2023-03-14T05:00:19;3.40;;;1.70;;
4001;SDS011;2015;48.670;9.060;2023-03-14T05:02:51;1.90;;;1.77;;
4001;SDS011;2015;48.670;9.060;2023-03-14T05:05:23;2.33;;;1.57;;
4001;SDS011;2015;48.670;9.060;2023-03-14T05:07:55;2.60;;;1.77;;
4001;SDS011;2015;48.670;9.060;2023-03-14T05:10:27;2.17;;;2.00;;
4001;SDS011;2015;48.670;9.060;2023-03-14T05:12:59;1.70;;;1.30;;
4001;SDS011;2015;48.670;9.060;2023-03-14T05:15:31;2.50;;;1.83;;
4001;SDS011;2015;48.670;9.060;2023-03-14T05:18:02;2.67;;;1.70;;
4001;SDS011;2015;48.670;9.060;2023-03-14T05:20:34;2.20;;;1.47;;
4001;SDS011;2015;48.670;9.060;2023-03-14T05:23:06;4.63;;;1.47;;
4001;SDS011;2015;48.670;9.060;2023-03-14T05:25:38;1.63;;;1.33;;
4001;SDS011;2015;48.670;9.060;2023-03-14T05:28:10;3.83;;;1.60;;
4001;SDS011;2015;48.670;9.060;2023-03-14T05:30:42;1.40;;;1.30;;
4001;SDS011;2015;48.670;9.060;2023-03-14T05:33:14;6.07;;;1.30;;
4001;SDS011;2015;48.670;9.060;2023-03-14T05:35:46;2.83;;;1.10;;
4001;SDS011;2015;48.670;9.060;2023-03-14T05:38:18;4.00;;;1.83;;
4001;SDS011;2015;48.670;9.060;2023-03-14T05:40:50;1.90;;;1.30;;
4001;SDS011;2015;48.670;9.060;2023-03-14T05:43:21;4.57;;;1.80;;
4001;SDS011;2015;48.670;9.060;2023-03-14T05:45:53;1.80;;;1.00;;
4001;SDS011;2015;48.670;9.060;2023-03-14T05:48:25;4.40;;;1.67;;
4001;SDS011;2015;48.670;9.060;2023-03-14T05:50:57;4.37;;;1.20;;
4001;SDS011;2015;48.670;9.060;2023-03-14T05:53:30;1.57;;;1.47;;
4001;SDS011;2015;48.670;9.060;2023-03-14T05:56:02;2.28;;;1.45;;
4001;SDS011;2015;48.670;9.060;2023-03-14T05:58:34;2.10;;;1.53;;
4001;SDS011;2015;48.670;9.060;2023-03-14T06:01:06;1.70;;;1.60;;
4001;SDS011;2015;48.670;9.060;2023-03-14T06:03:38;1.60;;;1.17;;
4001;SDS011;2015;48.670;9.060;2023-03-14T06:06:10;7.13;;;1.60;;
4001;SDS011;2015;48.670;9.060;2023-03-14T06:08:41;3.43;;;1.53;;
4001;SDS011;2015;48.670;9.060;2023-03-14T06:11:13;1.57;;;1.47;;
4001;SDS011;2015;48.670;9.060;2023-03-14T06:13:45;1.80;;;1.30;;
4001;SDS011;2015;48.670;9.060;2023-03-14T06:16:17;6.67;;;1.70;;
4001;SDS011;2015;48.670;9.060;2023-03-14T06:18:49;1.80;;;1.00;;
4001;SDS011;2015;48.670;9.060;2023-03-14T06:21:21;1.20;;;1.10;;
4001;SDS011;2015;48.670;9.060;2023-03-14T06:23:53;4.30;;;1.37;;
4001;SDS011;2015;48.670;9.060;2023-03-14T06:26:24;1.63;;;1.30;;
4001;SDS011;2015;48.670;9.060;2023-03-14T06:28:56;2.10;;;1.37;;
4001;SDS011;2015;48.670;9.060;2023-03-14T06:31:28;2.40;;;1.73;;
4001;SDS011;2015;48.670;9.060;2023-03-14T06:34:02;1.43;;;1.27;;
4001;SDS011;2015;48.670;9.060;2023-03-14T06:36:34;1.30;;;1.20;;
4001;SDS011;2015;48.670;9.060;2023-03-14T06:39:06;1.87;;;1.00;;
4001;SDS011;2015;48.670;9.060;2023-03-14T06:41:38;3.43;;;1.47;;
4001;SDS011;2015;48.670;9.060;2023-03-14T06:44:09;2.20;;;1.33;;
4001;SDS011;2015;48.670;9.060;2023-03-14T06:46:41;4.27;;;1.33;;
4001;SDS011;2015;48.670;9.060;2023-03-14T06:49:13;2.60;;;1.37;;
4001;SDS011;2015;48.670;9.060;2023-03-14T06:51:44;1.07;;;0.97;;
4001;SDS011;2015;48.670;9.060;2023-03-14T06:54:16;1.47;;;1.37;;
4001;SDS011;2015;48.670;9.060;2023-03-14T06:56:48;2.40;;;0.93;;
4001;SDS011;2015;48.670;9.060;2023-03-14T06:59:20;2.80;;;1.57;;
4001;SDS011;2015;48.670;9.060;2023-03-14T07:01:51;1.20;;;1.10;;
4001;SDS011;2015;48.670;9.060;2023-03-14T07:04:23;1.00;;;0.90;;
4001;SDS011;2015;48.670;9.060;2023-03-14T07:06:55;1.60;;;1.10;;
4001;SDS011;2015;48.670;9.060;2023-03-14T07:09:27;2.20;;;1.00;;
4001;SDS011;2015;48.670;9.060;2023-03-14T07:11:59;1.20;;;1.10;;
4001;SDS011;2015;48.670;9.060;2023-03-14T07:14:31;1.60;;;0.70;;
4001;SDS011;2015;48.670;9.060;2023-03-14T07:17:03;1.50;;;1.40;;
4001;SDS011;2015;48.670;9.060;2023-03-14T07:19:35;1.33;;;1.03;;
4001;SDS011;2015;48.670;9.060;2023-03-14T07:22:06;1.63;;;1.53;;
4001;SDS011;2015;48.670;9.060;2023-03-14T07:24:38;1.00;;;0.90;;
4001;SDS011;2015;48.670;9.060;2023-03-14T07:27:10;1.93;;;1.33;;
4001;SDS011;2015;48.670;9.060;2023-03-14T07:29:42;2.20;;;1.17;;
4001;SDS011;2015;48.670;9.060;2023-03-14T07:32:13;1.40;;;1.20;;
4001;SDS011;2015;48.670;9.060;2023-03-14T07:34:46;3.33;;;1.20;;
4001;SDS011;2015;48.670;9.060;2023-03-14T07:37:17;4.30;;;1.10;;
4001;SDS011;2015;48.670;9.060;2023-03-14T07:39:49;5.57;;;1.20;;
4001;SDS011;2015;48.670;9.060;2023-03-14T07:42:21;1.07;;;0.97;;
4001;SDS011;2015;48.670;9.060;2023-03-14T07:44:52;2.83;;;1.30;;
4001;SDS011;2015;48.670;9.060;2023-03-14T07:47:24;2.40;;;0.90;;
4001;SDS011;2015;48.670;9.060;2023-03-14T07:49:56;1.20;;;1.10;;
4001;SDS011;2015;48.670;9.060;2023-03-14T07:52:28;0.80;;;0.80;;
4001;SDS011;2015;48.670;9.060;2023-03-14T07:55:00;0.80;;;0.80;;
4001;SDS011;2015;48.670;9.060;2023-03-14T07:57:32;0.80;;;0.80;;
4001;SDS011;2015;48.670;9.060;2023-03-14T08:00:03;1.20;;;0.90;;
4001;SDS011;2015;48.670;9.060;2023-03-14T08:02:36;2.07;;;1.20;;
4001;SDS011;2015;48.670;9.060;2023-03-14T08:05:08;1.50;;;1.10;;
4001;SDS011;2015;48.670;9.060;2023-03-14T08:07:40;1.60;;;1.20;;
4001;SDS011;2015;48.670;9.060;2023-03-14T08:10:12;1.20;;;1.00;;
4001;SDS011;2015;48.670;9.060;2023-03-14T08:12:46;3.80;;;1.20;;
4001;SDS011;2015;48.670;9.060;2023-03-14T08:15:22;1.33;;;1.10;;
4001;SDS011;2015;48.670;9.060;2023-03-14T08:17:55;1.57;;;1.00;;
4001;SDS011;2015;48.670;9.060;2023-03-14T08:20:27;1.73;;;1.03;;
4001;SDS011;2015;48.670;9.060;2023-03-14T08:23:00;1.10;;;0.93;;
4001;SDS011;2015;48.670;9.060;2023-03-14T08:25:32;1.83;;;0.93;;
4001;SDS011;2015;48.670;9.060;2023-03-14T08:28:05;1.10;;;1.00;;
4001;SDS011;2015;48.670;9.060;2023-03-14T08:30:37;2.60;;;1.00;;
4001;SDS011;2015;48.670;9.060;2023-03-14T08:33:08;2.13;;;1.30;;
4001;SDS011;2015;48.670;9.060;2023-03-14T08:35:41;1.63;;;1.03;;
4001;SDS011;2015;48.670;9.060;2023-03-14T08:38:13;1.00;;;0.80;;
4001;SDS011;2015;48.670;9.060;2023-03-14T08:40:45;1.20;;;1.10;;
4001;SDS011;2015;48.670;9.060;2023-03-14T08:43:17;1.17;;;1.00;;
4001;SDS011;2015;48.670;9.060;2023-03-14T08:45:49;1.57;;;1.10;;
4001;SDS011;2015;48.670;9.060;2023-03-14T08:48:20;1.20;;;1.10;;
4001;SDS011;2015;48.670;9.060;2023-03-14T08:50:52;1.83;;;0.90;;
4001;SDS011;2015;48.670;9.060;2023-03-14T08:53:24;2.13;;;1.47;;
4001;SDS011;2015;48.670;9.060;2023-03-14T08:55:56;1.00;;;0.90;;
4001;SDS011;2015;48.670;9.060;2023-03-14T08:58:28;1.27;;;1.10;;
4001;SDS011;2015;48.670;9.060;2023-03-14T09:01:00;1.30;;;0.90;;
4001;SDS011;2015;48.670;9.060;2023-03-14T09:03:32;1.67;;;0.90;;
4001;SDS011;2015;48.670;9.060;2023-03-14T09:06:04;1.10;;;0.60;;
4001;SDS011;2015;48.670;9.060;2023-03-14T09:08:37;1.23;;;1.13;;
4001;SDS011;2015;48.670;9.060;2023-03-14T09:11:10;1.13;;;0.87;;
4001;SDS011;2015;48.670;9.060;2023-03-14T09:13:41;1.10;;;1.00;;
4001;SDS011;2015;48.670;9.060;2023-03-14T09:16:13;1.20;;;1.10;;
4001;SDS011;2015;48.670;9.060;2023-03-14T09:18:45;1.97;;;1.10;;
4001;SDS011;2015;48.670;9.060;2023-03-14T09:21:17;3.20;;;1.27;;
4001;SDS011;2015;48.670;9.060;2023-03-14T09:23:49;1.20;;;1.10;;
4001;SDS011;2015;48.670;9.060;2023-03-14T09:26:20;1.40;;;1.30;;
4001;SDS011;2015;48.670;9.060;2023-03-14T09:28:52;2.70;;;1.00;;
4001;SDS011;2015;48.670;9.060;2023-03-14T09:31:25;1.33;;;1.20;;
4001;SDS011;2015;48.670;9.060;2023-03-14T09:33:57;1.67;;;1.10;;
4001;SDS011;2015;48.670;9.060;2023-03-14T09:36:29;1.10;;;0.90;;
4001;SDS011;2015;48.670;9.060;2023-03-14T09:39:01;1.27;;;1.17;;
4001;SDS011;2015;48.670;9.060;2023-03-14T09:41:34;4.00;;;1.33;;
4001;SDS011;2015;48.670;9.060;2023-03-14T09:46:54;0.80;;;0.70;;
4001;SDS011;2015;48.670;9.060;2023-03-14T09:49:33;0.83;;;0.83;;
4001;SDS011;2015;48.670;9.060;2023-03-14T09:52:18;0.90;;;0.80;;
4001;SDS011;2015;48.670;9.060;2023-03-14T09:55:04;0.80;;;0.70;;
4001;SDS011;2015;48.670;9.060;2023-03-14T09:57:41;1.50;;;1.00;;
4001;SDS011;2015;48.670;9.060;2023-03-14T10:00:16;0.90;;;0.70;;
4001;SDS011;2015;48.670;9.060;2023-03-14T10:02:55;1.87;;;0.80;;
4001;SDS011;2015;48.670;9.060;2023-03-14T10:05:33;0.87;;;0.70;;
4001;SDS011;2015;48.670;9.060;2023-03-14T10:08:05;1.00;;;0.90;;
4001;SDS011;2015;48.670;9.060;2023-03-14T10:10:37;2.40;;;0.80;;
4001;SDS011;2015;48.670;9.060;2023-03-14T10:15:54;1.23;;;0.80;;
4001;SDS011;2015;48.670;9.060;2023-03-14T10:18:30;0.90;;;0.70;;
4001;SDS011;2015;48.670;9.060;2023-03-14T10:23:38;1.20;;;0.97;;
4001;SDS011;2015;48.670;9.060;2023-03-14T10:26:17;0.80;;;0.70;;
4001;SDS011;2015;48.670;9.060;2023-03-14T10:29:04;1.10;;;1.00;;
4001;SDS011;2015;48.670;9.060;2023-03-14T10:31:45;0.90;;;0.80;;
4001;SDS011;2015;48.670;9.060;2023-03-14T10:34:27;1.80;;;0.60;;
4001;SDS011;2015;48.670;9.060;2023-03-14T10:37:13;1.40;;;0.90;;
4001;SDS011;2015;48.670;9.060;2023-03-14T10:39:52;1.00;;;0.80;;
4001;SDS011;2015;48.670;9.060;2023-03-14T10:42:29;1.20;;;1.10;;
4001;SDS011;2015;48.670;9.060;2023-03-14T10:48:20;1.43;;;0.73;;
4001;SDS011;2015;48.670;9.060;2023-03-14T10:51:05;0.97;;;0.90;;
4001;SDS011;2015;48.670;9.060;2023-03-14T10:56:19;2.05;;;0.80;;
4001;SDS011;2015;48.670;9.060;2023-03-14T10:58:53;1.00;;;0.70;;
4001;SDS011;2015;48.670;9.060;2023-03-14T11:07:29;1.10;;;1.00;;
4001;SDS011;2015;48.670;9.060;2023-03-14T11:32:54;2.03;;;1.37;;
4001;SDS011;2015;48.670;9.060;2023-03-14T11:35:52;1.27;;;1.17;;
4001;SDS011;2015;48.670;9.060;2023-03-14T11:41:19;0.97;;;0.87;;
4001;SDS011;2015;48.670;9.060;2023-03-14T11:43:57;1.20;;;1.10;;
4001;SDS011;2015;48.670;9.060;2023-03-14T11:46:32;1.03;;;0.93;;
4001;SDS011;2015;48.670;9.060;2023-03-14T11:49:34;1.20;;;1.10;;
4001;SDS011;2015;48.670;9.060;2023-03-14T11:52:11;1.20;;;0.80;;
4001;SDS011;2015;48.670;9.060;2023-03-14T11:54:52;1.27;;;1.17;;
4001;SDS011;2015;48.670;9.060;2023-03-14T11:57:29;4.10;;;1.00;;
4001;SDS011;2015;48.670;9.060;2023-03-14T12:00:20;0.97;;;0.87;;
4001;SDS011;2015;48.670;9.060;2023-03-14T12:03:02;0.90;;;0.80;;
4001;SDS011;2015;48.670;9.060;2023-03-14T12:08:47;1.40;;;0.90;;
4001;SDS011;2015;48.670;9.060;2023-03-14T12:11:40;1.10;;;1.00;;
4001;SDS011;2015;48.670;9.060;2023-03-14T12:14:35;1.23;;;0.80;;
4001;SDS011;2015;48.670;9.060;2023-03-14T12:20:20;1.20;;;1.10;;
4001;SDS011;2015;48.670;9.060;2023-03-14T12:23:02;0.93;;;0.87;;
4001;SDS011;2015;48.670;9.060;2023-03-14T12:25:36;1.13;;;1.03;;
4001;SDS011;2015;48.670;9.060;2023-03-14T12:28:21;1.30;;;1.00;;
4001;SDS011;2015;48.670;9.060;2023-03-14T12:45:32;1.33;;;1.13;;
4001;SDS011;2015;48.670;9.060;2023-03-14T12:50:56;2.70;;;1.10;;
4001;SDS011;2015;48.670;9.060;2023-03-14T12:59:58;1.00;;;0.90;;
4001;SDS011;2015;48.670;9.060;2023-03-14T13:02:38;1.57;;;1.33;;
4001;SDS011;2015;48.670;9.060;2023-03-14T13:10:41;1.53;;;1.43;;
4001;SDS011;2015;48.670;9.060;2023-03-14T13:13:22;1.10;;;1.00;;
4001;SDS011;2015;48.670;9.060;2023-03-14T13:15:57;1.77;;;1.40;;
4001;SDS011;2015;48.670;9.060;2023-03-14T13:18:35;1.23;;;1.13;;
4001;SDS011;2015;48.670;9.060;2023-03-14T13:21:14;1.10;;;1.00;;
4001;SDS011;2015;48.670;9.060;2023-03-14T13:23:55;1.50;;;1.30;;
4001;SDS011;2015;48.670;9.060;2023-03-14T13:26:37;1.37;;;1.27;;
4001;SDS011;2015;48.670;9.060;2023-03-14T13:29:25;1.57;;;1.30;;
4001;SDS011;2015;48.670;9.060;2023-03-14T13:32:16;8.63;;;1.73;;
4001;SDS011;2015;48.670;9.060;2023-03-14T13:34:50;1.30;;;1.20;;
4001;SDS011;2015;48.670;9.060;2023-03-14T13:37:23;1.40;;;1.30;;
4001;SDS011;2015;48.670;9.060;2023-03-14T13:39:57;3.40;;;1.40;;
4001;SDS011;2015;48.670;9.060;2023-03-14T13:42:29;1.50;;;1.30;;
4001;SDS011;2015;48.670;9.060;2023-03-14T13:45:00;1.43;;;0.90;;
4001;SDS011;2015;48.670;9.060;2023-03-14T13:47:33;1.57;;;1.47;;
4001;SDS011;2015;48.670;9.060;2023-03-14T13:50:16;2.17;;;1.23;;
4001;SDS011;2015;48.670;9.060;2023-03-14T13:52:54;3.83;;;2.20;;
4001;SDS011;2015;48.670;9.060;2023-03-14T13:55:28;2.40;;;1.60;;
4001;SDS011;2015;48.670;9.060;2023-03-14T13:58:01;1.63;;;1.37;;
4001;SDS011;2015;48.670;9.060;2023-03-14T14:00:32;2.00;;;1.30;;
4001;SDS011;2015;48.670;9.060;2023-03-14T14:03:04;1.70;;;1.60;;
4001;SDS011;2015;48.670;9.060;2023-03-14T14:05:41;1.53;;;1.43;;
4001;SDS011;2015;48.670;9.060;2023-03-14T14:08:15;1.37;;;1.20;;
4001;SDS011;2015;48.670;9.060;2023-03-14T14:10:47;1.50;;;1.40;;
4001;SDS011;2015;48.670;9.060;2023-03-14T14:13:21;2.20;;;1.40;;
4001;SDS011;2015;48.670;9.060;2023-03-14T14:15:55;2.53;;;2.23;;
4001;SDS011;2015;48.670;9.060;2023-03-14T14:18:32;1.67;;;1.50;;
4001;SDS011;2015;48.670;9.060;2023-03-14T14:21:05;1.50;;;1.30;;
4001;SDS011;2015;48.670;9.060;2023-03-14T14:23:38;2.63;;;1.10;;
4001;SDS011;2015;48.670;9.060;2023-03-14T14:26:13;4.70;;;1.70;;
4001;SDS011;2015;48.670;9.060;2023-03-14T14:28:57;3.27;;;1.30;;
4001;SDS011;2015;48.670;9.060;2023-03-14T14:31:36;2.40;;;1.00;;
4001;SDS011;2015;48.670;9.060;2023-03-14T14:34:18;5.83;;;1.37;;
4001;SDS011;2015;48.670;9.060;2023-03-14T14:36:51;1.40;;;1.13;;
4001;SDS011;2015;48.670;9.060;2023-03-14T14:39:25;1.27;;;1.17;;
4001;SDS011;2015;48.670;9.060;2023-03-14T14:42:00;1.40;;;1.30;;
4001;SDS011;2015;48.670;9.060;2023-03-14T14:44:32;1.27;;;1.17;;
4001;SDS011;2015;48.670;9.060;2023-03-14T14:47:05;1.50;;;1.30;;
4001;SDS011;2015;48.670;9.060;2023-03-14T14:49:37;1.60;;;1.50;;
4001;SDS011;2015;48.670;9.060;2023-03-14T14:52:11;1.67;;;1.47;;
4001;SDS011;2015;48.670;9.060;2023-03-14T14:54:53;1.90;;;1.80;;
4001;SDS011;2015;48.670;9.060;2023-03-14T14:57:32;2.40;;;1.57;;
4001;SDS011;2015;48.670;9.060;2023-03-14T15:00:17;1.53;;;1.43;;
4001;SDS011;2015;48.670;9.060;2023-03-14T15:02:54;2.30;;;1.73;;
4001;SDS011;2015;48.670;9.060;2023-03-14T15:05:30;3.63;;;1.57;;
4001;SDS011;2015;48.670;9.060;2023-03-14T15:08:08;1.40;;;1.30;;
4001;SDS011;2015;48.670;9.060;2023-03-14T15:10:41;2.80;;;2.13;;
4001;SDS011;2015;48.670;9.060;2023-03-14T15:13:13;1.10;;;1.00;;
4001;SDS011;2015;48.670;9.060;2023-03-14T15:15:45;5.53;;;1.70;;
4001;SDS011;2015;48.670;9.060;2023-03-14T15:18:18;1.53;;;1.37;;
4001;SDS011;2015;48.670;9.060;2023-03-14T15:20:50;2.00;;;1.23;;
4001;SDS011;2015;48.670;9.060;2023-03-14T15:23:22;1.90;;;1.40;;
4001;SDS011;2015;48.670;9.060;2023-03-14T15:25:54;1.97;;;1.33;;
4001;SDS011;2015;48.670;9.060;2023-03-14T15:28:27;2.20;;;1.50;;
4001;SDS011;2015;48.670;9.060;2023-03-14T15:31:00;5.03;;;1.67;;
4001;SDS011;2015;48.670;9.060;2023-03-14T15:33:32;2.47;;;1.57;;
4001;SDS011;2015;48.670;9.060;2023-03-14T15:36:04;2.00;;;1.50;;
4001;SDS011;2015;48.670;9.060;2023-03-14T15:38:37;7.20;;;1.50;;
4001;SDS011;2015;48.670;9.060;2023-03-14T15:41:09;1.40;;;1.30;;
4001;SDS011;2015;48.670;9.060;2023-03-14T15:43:41;1.73;;;1.30;;
4001;SDS011;2015;48.670;9.060;2023-03-14T15:46:13;3.87;;;1.80;;
4001;SDS011;2015;48.670;9.060;2023-03-14T15:48:45;3.33;;;1.20;;
4001;SDS011;2015;48.670;9.060;2023-03-14T15:51:18;3.93;;;1.63;;
4001;SDS011;2015;48.670;9.060;2023-03-14T15:53:50;2.10;;;1.90;;
4001;SDS011;2015;48.670;9.060;2023-03-14T15:56:22;2.37;;;1.57;;
4001;SDS011;2015;48.670;9.060;2023-03-14T15:58:56;2.00;;;1.40;;
4001;SDS011;2015;48.670;9.060;2023-03-14T16:01:28;2.03;;;1.87;;
4001;SDS011;2015;48.670;9.060;2023-03-14T16:04:02;3.70;;;1.53;;
4001;SDS011;2015;48.670;9.060;2023-03-14T16:06:34;1.53;;;1.20;;
4001;SDS011;2015;48.670;9.060;2023-03-14T16:09:07;3.47;;;1.43;;
4001;SDS011;2015;48.670;9.060;2023-03-14T16:11:39;5.43;;;1.80;;
4001;SDS011;2015;48.670;9.060;2023-03-14T16:14:11;2.37;;;2.17;;
4001;SDS011;2015;48.670;9.060;2023-03-14T16:16:42;3.73;;;1.70;;
4001;SDS011;2015;48.670;9.060;2023-03-14T16:19:14;1.40;;;1.30;;
4001;SDS011;2015;48.670;9.060;2023-03-14T16:21:46;2.90;;;2.13;;
4001;SDS011;2015;48.670;9.060;2023-03-14T16:24:20;1.50;;;1.33;;
4001;SDS011;2015;48.670;9.060;2023-03-14T16:26:51;2.20;;;1.40;;
4001;SDS011;2015;48.670;9.060;2023-03-14T16:29:23;2.00;;;1.90;;
4001;SDS011;2015;48.670;9.060;2023-03-14T16:31:55;2.43;;;1.80;;
4001;SDS011;2015;48.670;9.060;2023-03-14T16:34:27;2.30;;;1.80;;
4001;SDS011;2015;48.670;9.060;2023-03-14T16:36:59;2.13;;;2.03;;
4001;SDS011;2015;48.670;9.060;2023-03-14T16:39:30;2.17;;;1.70;;
4001;SDS011;2015;48.670;9.060;2023-03-14T16:42:02;5.30;;;2.23;;
4001;SDS011;2015;48.670;9.060;2023-03-14T16:44:34;2.23;;;1.73;;
4001;SDS011;2015;48.670;9.060;2023-03-14T16:47:06;3.90;;;2.80;;
4001;SDS011;2015;48.670;9.060;2023-03-14T16:49:41;5.97;;;5.77;;
4001;SDS011;2015;48.670;9.060;2023-03-14T16:52:12;5.97;;;5.77;;
4001;SDS011;2015;48.670;9.060;2023-03-14T16:54:44;7.50;;;7.20;;
4001;SDS011;2015;48.670;9.060;2023-03-14T16:57:16;7.13;;;6.83;;
4001;SDS011;2015;48.670;9.060;2023-03-14T16:59:48;6.50;;;6.20;;
4001;SDS011;2015;48.670;9.060;2023-03-14T17:02:20;5.63;;;5.23;;
4001;SDS011;2015;48.670;9.060;2023-03-14T17:04:52;4.87;;;4.60;;
4001;SDS011;2015;48.670;9.060;2023-03-14T17:07:24;3.10;;;3.00;;
4001;SDS011;2015;48.670;9.060;2023-03-14T17:09:55;2.10;;;1.80;;
4001;SDS011;2015;48.670;9.060;2023-03-14T17:12:27;5.03;;;2.40;;
4001;SDS011;2015;48.670;9.060;2023-03-14T17:14:59;2.10;;;1.90;;
4001;SDS011;2015;48.670;9.060;2023-03-14T17:17:31;10.27;;;9.63;;
4001;SDS011;2015;48.670;9.060;2023-03-14T17:20:03;1.70;;;1.60;;
4001;SDS011;2015;48.670;9.060;2023-03-14T17:22:37;2.67;;;2.30;;
4001;SDS011;2015;48.670;9.060;2023-03-14T17:25:08;3.10;;;1.90;;
4001;SDS011;2015;48.670;9.060;2023-03-14T17:27:40;2.28;;;2.17;;
4001;SDS011;2015;48.670;9.060;2023-03-14T17:30:15;2.90;;;2.37;;